Time;durP1;ratioP1;P1;durP2;ratioP2;P2;SDS_P1;SDS_P2;PMS_P1;PMS_P2;Temp;Humidity;BMP_temperature;BMP_pressure;BME280_temperature;BME280_humidity;BME280_pressure;Samples;Min_cycle;Max_cycle;Signal;HPM_P1;HPM_P2
2023/04/02 00:00:30;;;;;;;7.85;4.90;;;;;;;;;;5014448;28;20091;-80
2023/04/02 00:03:08;;;;;;;6.85;4.43;;;;;;;;;;4996681;28;20477;-80
2023/04/02 00:05:53;;;;;;;7.72;4.75;;;;;;;;;;4993937;28;20025;-79
2023/04/02 00:08:22;;;;;;;7.32;5.20;;;;;;;;;;4992867;28;20097;-80
2023/04/02 00:10:58;;;;;;;10.02;5.43;;;;;;;;;;5016356;28;20021;-80
2023/04/02 00:13:42;;;;;;;9.48;6.00;;;;;;;;;;5012275;28;20030;-80
2023/04/02 00:16:11;;;;;;;8.80;5.93;;;;;;;;;;5013609;28;20072;-80
2023/04/02 00:18:44;;;;;;;9.60;6.18;;;;;;;;;;5015632;28;20486;-79
2023/04/02 00:21:20;;;;;;;9.38;6.35;;;;;;;;;;5017972;28;20061;-80
2023/04/02 00:23:46;;;;;;;8.90;6.00;;;;;;;;;;4989871;28;20490;-79
2023/04/02 00:26:40;;;;;;;10.32;6.57;;;;;;;;;;4994795;28;20029;-79
2023/04/02 00:29:06;;;;;;;9.35;6.03;;;;;;;;;;4999998;28;20038;-80
2023/04/02 00:31:33;;;;;;;10.57;6.72;;;;;;;;;;4995745;28;20036;-79
2023/04/02 00:34:01;;;;;;;8.95;6.45;;;;;;;;;;5016583;28;20110;-80
2023/04/02 00:36:30;;;;;;;8.90;5.53;;;;;;;;;;4998631;28;20042;-79
2023/04/02 00:38:58;;;;;;;8.55;6.18;;;;;;;;;;5000087;28;20140;-80
2023/04/02 00:41:28;;;;;;;8.82;5.90;;;;;;;;;;4998593;28;20026;-79
2023/04/02 00:43:56;;;;;;;8.82;6.03;;;;;;;;;;4998135;28;20052;-80
2023/04/02 00:46:28;;;;;;;9.55;5.68;;;;;;;;;;4997414;28;20022;-79
2023/04/02 00:49:10;;;;;;;7.82;5.38;;;;;;;;;;5011726;28;20033;-80
2023/04/02 00:51:40;;;;;;;8.80;5.47;;;;;;;;;;5016342;28;20030;-79
2023/04/02 00:54:14;;;;;;;10.20;5.35;;;;;;;;;;4996981;28;20550;-80
2023/04/02 00:56:43;;;;;;;9.13;5.10;;;;;;;;;;4998934;28;20017;-79
2023/04/02 00:59:30;;;;;;;7.20;4.30;;;;;;;;;;4997182;28;20501;-79
2023/04/02 01:02:18;;;;;;;6.13;4.13;;;;;;;;;;5007560;28;20394;-80
2023/04/02 01:05:16;;;;;;;4.72;3.35;;;;;;;;;;4998380;28;20109;-80
2023/04/02 01:08:07;;;;;;;5.88;3.90;;;;;;;;;;4983420;28;20044;-79
2023/04/02 01:11:01;;;;;;;8.07;4.10;;;;;;;;;;5012498;28;20026;-80
2023/04/02 01:13:48;;;;;;;6.57;4.38;;;;;;;;;;4989174;28;20049;-79
2023/04/02 01:16:23;;;;;;;7.40;4.13;;;;;;;;;;4995284;28;20497;-79
2023/04/02 01:19:17;;;;;;;6.68;4.65;;;;;;;;;;5013910;28;20375;-79
2023/04/02 01:21:45;;;;;;;;;;;;;;;;;;4996856;28;20026;-80
2023/04/02 01:24:13;;;;;;;10.73;5.65;;;;;;;;;;5015304;28;19956;-80
2023/04/02 01:26:56;;;;;;;8.32;6.00;;;;;;;;;;4998280;28;20025;-79
2023/04/02 01:29:30;;;;;;;9.18;6.88;;;;;;;;;;4995266;28;20164;-80
2023/04/02 01:32:00;;;;;;;9.43;6.63;;;;;;;;;;5014624;28;20440;-80
2023/04/02 01:34:27;;;;;;;9.52;6.15;;;;;;;;;;4997176;28;20025;-79
2023/04/02 01:37:15;;;;;;;10.25;6.75;;;;;;;;;;5013361;28;20493;-79
2023/04/02 01:40:07;;;;;;;11.52;6.13;;;;;;;;;;5018570;28;20117;-79
2023/04/02 01:43:02;;;;;;;8.82;5.80;;;;;;;;;;4996003;28;20109;-80
2023/04/02 01:45:28;;;;;;;6.88;5.03;;;;;;;;;;4980739;28;20037;-79
2023/04/02 01:47:54;;;;;;;7.32;4.90;;;;;;;;;;5012620;28;20052;-80
2023/04/02 01:50:30;;;;;;;6.13;4.40;;;;;;;;;;4995123;28;20032;-79
2023/04/02 01:53:01;;;;;;;9.00;4.35;;;;;;;;;;4998585;28;20504;-80
2023/04/02 01:55:43;;;;;;;8.45;4.32;;;;;;;;;;4997121;28;20037;-80
2023/04/02 01:58:11;;;;;;;7.03;5.00;;;;;;;;;;5011703;28;20021;-80
2023/04/02 02:00:44;;;;;;;8.10;4.63;;;;;;;;;;5013978;28;20698;-79
2023/04/02 02:03:11;;;;;;;8.23;4.60;;;;;;;;;;5011994;28;20015;-79
2023/04/02 02:05:37;;;;;;;8.02;4.35;;;;;;;;;;4995070;28;20025;-79
2023/04/02 02:08:03;;;;;;;7.25;4.50;;;;;;;;;;4978266;28;20521;-79
2023/04/02 02:10:34;;;;;;;8.38;5.47;;;;;;;;;;4993287;28;20179;-79
2023/04/02 02:12:59;;;;;;;9.93;5.43;;;;;;;;;;5009838;28;20030;-79
2023/04/02 02:15:25;;;;;;;8.48;5.43;;;;;;;;;;4996177;28;20033;-79
2023/04/02 02:18:01;;;;;;;7.70;5.18;;;;;;;;;;4979830;28;20882;-79
2023/04/02 02:20:27;;;;;;;6.30;4.32;;;;;;;;;;5013301;28;20490;-79
2023/04/02 02:22:54;;;;;;;5.82;3.90;;;;;;;;;;4996674;28;20075;-79
2023/04/02 02:25:24;;;;;;;6.28;3.97;;;;;;;;;;5014704;28;20042;-80
2023/04/02 02:28:09;;;;;;;6.85;4.30;;;;;;;;;;4990775;28;20030;-80
2023/04/02 02:30:36;;;;;;;7.90;3.88;;;;;;;;;;5010489;28;20030;-79
2023/04/02 02:33:24;;;;;;;6.90;4.15;;;;;;;;;;4992687;28;20368;-79
2023/04/02 02:35:53;;;;;;;6.25;4.07;;;;;;;;;;4985715;28;20049;-79
2023/04/02 02:38:27;;;;;;;6.18;3.83;;;;;;;;;;5011041;28;20025;-79
2023/04/02 02:40:58;;;;;;;6.43;4.30;;;;;;;;;;4993447;28;20038;-79
2023/04/02 02:43:25;;;;;;;6.47;4.15;;;;;;;;;;5013070;28;20407;-79
2023/04/02 02:45:52;;;;;;;6.53;4.40;;;;;;;;;;5005888;28;20034;-79
2023/04/02 02:48:22;;;;;;;6.07;4.00;;;;;;;;;;4996605;28;20026;-80
2023/04/02 02:50:49;;;;;;;8.73;4.43;;;;;;;;;;4995863;28;20041;-80
2023/04/02 02:53:21;;;;;;;6.55;4.47;;;;;;;;;;4995190;28;20018;-79
2023/04/02 02:55:50;;;;;;;7.45;4.55;;;;;;;;;;4994601;28;20518;-79
2023/04/02 02:58:25;;;;;;;6.97;4.55;;;;;;;;;;4995661;28;20128;-79
2023/04/02 03:00:50;;;;;;;6.45;4.38;;;;;;;;;;5010280;28;20745;-79
2023/04/02 03:03:20;;;;;;;7.78;5.13;;;;;;;;;;5011079;28;20108;-79
2023/04/02 03:05:52;;;;;;;9.02;4.88;;;;;;;;;;5010627;28;20104;-79
2023/04/02 03:08:45;;;;;;;7.78;4.85;;;;;;;;;;4995616;28;20018;-79
2023/04/02 03:11:13;;;;;;;9.23;5.97;;;;;;;;;;4992090;28;20077;-79
2023/04/02 03:13:46;;;;;;;8.63;6.07;;;;;;;;;;4994692;28;20273;-79
2023/04/02 03:16:20;;;;;;;8.85;6.25;;;;;;;;;;5012605;28;20433;-79
2023/04/02 03:18:52;;;;;;;9.55;6.85;;;;;;;;;;5004181;28;20033;-79
2023/04/02 03:21:33;;;;;;;11.00;7.15;;;;;;;;;;5015065;28;20490;-79
2023/04/02 03:24:11;;;;;;;13.18;7.13;;;;;;;;;;5012662;28;20029;-79
2023/04/02 03:26:54;;;;;;;10.68;7.28;;;;;;;;;;5009208;28;20589;-79
2023/04/02 03:29:30;;;;;;;11.18;6.95;;;;;;;;;;5014422;28;20057;-79
2023/04/02 03:32:19;;;;;;;9.77;6.90;;;;;;;;;;5013138;28;20022;-79
2023/04/02 03:34:56;;;;;;;9.82;6.32;;;;;;;;;;4981175;28;20040;-79
2023/04/02 03:37:28;;;;;;;10.32;6.28;;;;;;;;;;4999103;28;20022;-79
2023/04/02 03:40:06;;;;;;;9.17;5.50;;;;;;;;;;5016454;28;20030;-78
2023/04/02 03:42:45;;;;;;;7.22;5.15;;;;;;;;;;4998285;28;20057;-79
2023/04/02 03:45:15;;;;;;;8.82;5.18;;;;;;;;;;5017413;28;20025;-79
2023/04/02 03:48:00;;;;;;;9.35;5.55;;;;;;;;;;5017147;28;20026;-79
2023/04/02 03:50:42;;;;;;;6.65;4.40;;;;;;;;;;4999560;28;20040;-78
2023/04/02 03:53:08;;;;;;;7.60;4.68;;;;;;;;;;4999324;28;20552;-79
2023/04/02 03:55:37;;;;;;;8.57;4.57;;;;;;;;;;5016903;28;20029;-79
2023/04/02 03:58:22;;;;;;;7.25;4.22;;;;;;;;;;5017959;28;20038;-79
2023/04/02 04:00:54;;;;;;;8.02;4.25;;;;;;;;;;4992757;28;20086;-79
2023/04/02 04:03:30;;;;;;;6.10;4.07;;;;;;;;;;5015771;28;20022;-79
2023/04/02 04:06:00;;;;;;;6.72;4.30;;;;;;;;;;5015450;28;20033;-79
2023/04/02 04:08:44;;;;;;;6.78;4.15;;;;;;;;;;4995468;28;20083;-79
2023/04/02 04:11:17;;;;;;;5.90;4.00;;;;;;;;;;5019863;28;20018;-79
2023/04/02 04:13:52;;;;;;;5.63;3.60;;;;;;;;;;4998500;28;20045;-79
2023/04/02 04:16:27;;;;;;;7.43;3.90;;;;;;;;;;5017605;28;20073;-79
2023/04/02 04:19:02;;;;;;;6.75;4.03;;;;;;;;;;5000008;28;20038;-79
2023/04/02 04:21:29;;;;;;;6.22;4.18;;;;;;;;;;5015519;28;20065;-79
2023/04/02 04:24:02;;;;;;;5.35;3.72;;;;;;;;;;4992261;28;20037;-79
2023/04/02 04:26:52;;;;;;;6.60;4.00;;;;;;;;;;4999463;28;20053;-79
2023/04/02 04:29:23;;;;;;;7.15;4.68;;;;;;;;;;5011023;28;20029;-78
2023/04/02 04:31:53;;;;;;;12.43;5.05;;;;;;;;;;5013886;28;20048;-79
2023/04/02 04:34:25;;;;;;;10.10;5.00;;;;;;;;;;5015170;28;20022;-79
2023/04/02 04:36:54;;;;;;;9.52;4.75;;;;;;;;;;5014743;28;20489;-79
2023/04/02 04:39:41;;;;;;;7.53;4.80;;;;;;;;;;4998446;28;20021;-79
2023/04/02 04:42:18;;;;;;;7.68;4.45;;;;;;;;;;5013785;28;20029;-79
2023/04/02 04:44:52;;;;;;;7.40;4.97;;;;;;;;;;5010512;28;20145;-79
2023/04/02 04:47:25;;;;;;;9.38;5.50;;;;;;;;;;5012099;28;20374;-79
2023/04/02 04:49:55;;;;;;;;;;;;;;;;;;4996114;28;20030;-79
2023/04/02 04:52:24;;;;;;;8.15;4.95;;;;;;;;;;5014507;28;19921;-79
2023/04/02 04:54:50;;;;;;;11.07;5.13;;;;;;;;;;5014437;28;20030;-79
2023/04/02 04:57:28;;;;;;;9.68;5.55;;;;;;;;;;5000205;28;20041;-79
2023/04/02 05:00:21;;;;;;;7.57;5.00;;;;;;;;;;4997825;28;20073;-79
2023/04/02 05:02:56;;;;;;;7.55;5.00;;;;;;;;;;5011991;28;20026;-79
2023/04/02 05:05:29;;;;;;;7.85;5.30;;;;;;;;;;5009111;28;20601;-75
2023/04/02 05:07:59;;;;;;;8.20;4.88;;;;;;;;;;4995891;28;20026;-76
2023/04/02 05:10:31;;;;;;;8.05;5.35;;;;;;;;;;5007949;28;20022;-76
2023/04/02 05:13:05;;;;;;;7.82;5.00;;;;;;;;;;5008907;28;20030;-77
2023/04/02 05:15:40;;;;;;;8.20;6.10;;;;;;;;;;4995315;28;20045;-75
2023/04/02 05:18:43;;;;;;;9.82;6.93;;;;;;;;;;5008166;28;20084;-75
2023/04/02 05:21:20;;;;;;;15.55;6.45;;;;;;;;;;5011365;28;20435;-75
2023/04/02 05:23:50;;;;;;;10.25;7.00;;;;;;;;;;4996625;28;20060;-76
2023/04/02 05:26:29;;;;;;;8.80;6.10;;;;;;;;;;4997259;28;20060;-76
2023/04/02 05:29:08;;;;;;;8.13;5.93;;;;;;;;;;4977616;28;20384;-76
2023/04/02 05:31:45;;;;;;;9.60;5.78;;;;;;;;;;4990290;28;20034;-76
2023/04/02 05:34:12;;;;;;;10.50;5.95;;;;;;;;;;4991257;28;20045;-75
2023/04/02 05:36:38;;;;;;;9.75;5.30;;;;;;;;;;5007035;28;20478;-75
2023/04/02 05:39:08;;;;;;;9.38;5.68;;;;;;;;;;4988763;28;20026;-75
2023/04/02 05:41:42;;;;;;;7.57;5.40;;;;;;;;;;4991158;28;20093;-75
2023/04/02 05:44:47;;;;;;;8.60;5.20;;;;;;;;;;5010765;28;20498;-75
2023/04/02 05:47:26;;;;;;;7.55;4.82;;;;;;;;;;4954366;28;20037;-76
2023/04/02 05:50:06;;;;;;;8.13;5.32;;;;;;;;;;5004907;28;20025;-75
2023/04/02 05:52:38;;;;;;;7.95;5.30;;;;;;;;;;5002454;28;20097;-76
2023/04/02 05:55:29;;;;;;;7.77;4.37;;;;;;;;;;4983990;28;20030;-75
2023/04/02 05:58:01;;;;;;;6.45;4.07;;;;;;;;;;5005754;28;20429;-76
2023/04/02 06:00:50;;;;;;;8.50;4.13;;;;;;;;;;5001203;28;20114;-75
2023/04/02 06:03:31;;;;;;;5.40;3.70;;;;;;;;;;5006523;28;20075;-75
2023/04/02 06:06:02;;;;;;;8.00;4.00;;;;;;;;;;4987076;28;20097;-75
2023/04/02 06:08:42;;;;;;;5.80;3.55;;;;;;;;;;5008868;28;20081;-75
2023/04/02 06:11:15;;;;;;;5.32;3.03;;;;;;;;;;4989031;28;20026;-76
2023/04/02 06:13:40;;;;;;;4.90;2.95;;;;;;;;;;5003935;28;20030;-76
2023/04/02 06:16:06;;;;;;;5.45;3.00;;;;;;;;;;5008464;28;20077;-76
2023/04/02 06:18:34;;;;;;;4.25;2.63;;;;;;;;;;4989827;28;20025;-75
2023/04/02 06:21:00;;;;;;;8.15;2.80;;;;;;;;;;4988625;28;20037;-76
2023/04/02 06:23:34;;;;;;;5.60;2.92;;;;;;;;;;4988096;28;20195;-75
2023/04/02 06:26:05;;;;;;;4.47;2.67;;;;;;;;;;4990132;28;20145;-75
2023/04/02 06:28:39;;;;;;;6.38;3.00;;;;;;;;;;5007397;28;20033;-76
2023/04/02 06:31:12;;;;;;;5.20;2.65;;;;;;;;;;5003280;28;20029;-75
2023/04/02 06:33:37;;;;;;;4.55;2.95;;;;;;;;;;5006711;28;20057;-75
2023/04/02 06:36:04;;;;;;;4.68;2.67;;;;;;;;;;4990807;28;20036;-75
2023/04/02 06:38:31;;;;;;;4.35;2.60;;;;;;;;;;5004449;28;20360;-75
2023/04/02 06:41:04;;;;;;;7.07;2.90;;;;;;;;;;5005914;28;20494;-75
2023/04/02 06:43:44;;;;;;;3.95;2.53;;;;;;;;;;5006425;28;20390;-75
2023/04/02 06:46:27;;;;;;;5.07;2.85;;;;;;;;;;4990407;28;20033;-75
2023/04/02 06:49:12;;;;;;;4.25;2.50;;;;;;;;;;4990827;28;20069;-76
2023/04/02 06:51:38;;;;;;;4.50;2.60;;;;;;;;;;5010425;28;20034;-76
2023/04/02 06:54:04;;;;;;;5.55;2.00;;;;;;;;;;4991540;28;20113;-77
2023/04/02 06:56:43;;;;;;;4.38;2.15;;;;;;;;;;4993793;28;20022;-77
2023/04/02 06:59:09;;;;;;;4.75;2.40;;;;;;;;;;5011388;28;20026;-76
2023/04/02 07:01:38;;;;;;;5.80;1.95;;;;;;;;;;5012407;28;20034;-75
2023/04/02 07:04:05;;;;;;;3.95;1.75;;;;;;;;;;4993169;28;20496;-74
2023/04/02 07:06:30;;;;;;;6.70;1.70;;;;;;;;;;4992577;28;20093;-75
2023/04/02 07:08:55;;;;;;;3.92;1.55;;;;;;;;;;5006478;28;20504;-76
2023/04/02 07:11:21;;;;;;;3.83;1.70;;;;;;;;;;5007695;28;20095;-76
2023/04/02 07:13:48;;;;;;;6.50;1.70;;;;;;;;;;5004360;28;20029;-77
2023/04/02 07:16:16;;;;;;;3.38;1.75;;;;;;;;;;4994632;28;20401;-76
2023/04/02 07:18:42;;;;;;;3.60;1.60;;;;;;;;;;5003178;28;20030;-76
2023/04/02 07:21:07;;;;;;;4.72;1.75;;;;;;;;;;5012545;28;20036;-76
2023/04/02 07:23:33;;;;;;;6.38;1.88;;;;;;;;;;4996607;28;20030;-76
2023/04/02 07:25:58;;;;;;;3.20;1.58;;;;;;;;;;4996213;28;20512;-77
2023/04/02 07:28:24;;;;;;;3.45;1.50;;;;;;;;;;4987223;28;20127;-76
2023/04/02 07:30:51;;;;;;;2.70;1.55;;;;;;;;;;5006615;28;20032;-76
2023/04/02 07:33:19;;;;;;;2.90;1.52;;;;;;;;;;5002734;28;20033;-77
2023/04/02 07:35:45;;;;;;;3.67;1.75;;;;;;;;;;4987353;28;20040;-75
2023/04/02 07:38:10;;;;;;;4.57;1.90;;;;;;;;;;5008017;28;20446;-76
2023/04/02 07:40:36;;;;;;;6.82;1.65;;;;;;;;;;5011593;28;20490;-77
2023/04/02 07:43:03;;;;;;;4.75;1.67;;;;;;;;;;5003409;28;20029;-76
2023/04/02 07:45:28;;;;;;;3.85;1.73;;;;;;;;;;5007523;28;20148;-75
2023/04/02 07:47:54;;;;;;;3.22;1.33;;;;;;;;;;5013372;28;20105;-76
2023/04/02 07:50:19;;;;;;;3.80;1.67;;;;;;;;;;4991466;28;20548;-77
2023/04/02 07:52:45;;;;;;;4.43;1.60;;;;;;;;;;5002662;28;20037;-76
2023/04/02 07:55:12;;;;;;;4.63;1.75;;;;;;;;;;4994802;28;20041;-75
2023/04/02 07:57:48;;;;;;;2.35;1.33;;;;;;;;;;5008810;28;20034;-76
2023/04/02 08:00:14;;;;;;;5.55;1.65;;;;;;;;;;5010794;28;20055;-76
2023/04/02 08:02:41;;;;;;;3.28;1.48;;;;;;;;;;4992391;28;20112;-75
2023/04/02 08:05:07;;;;;;;2.92;1.48;;;;;;;;;;4991899;28;20080;-77
2023/04/02 08:07:33;;;;;;;2.53;1.20;;;;;;;;;;4993993;28;20065;-76
2023/04/02 08:09:58;;;;;;;6.60;1.88;;;;;;;;;;5011826;28;20030;-76
2023/04/02 08:12:24;;;;;;;2.55;1.50;;;;;;;;;;5009927;28;20022;-76
2023/04/02 08:14:49;;;;;;;4.03;1.58;;;;;;;;;;4991076;28;20032;-76
2023/04/02 08:17:15;;;;;;;4.55;1.83;;;;;;;;;;5004845;28;20378;-77
2023/04/02 08:19:41;;;;;;;6.93;2.08;;;;;;;;;;4987481;28;20193;-75
2023/04/02 08:22:06;;;;;;;3.13;1.70;;;;;;;;;;4990104;28;20398;-76
2023/04/02 08:24:31;;;;;;;3.78;2.00;;;;;;;;;;5013710;28;20057;-76
2023/04/02 08:26:57;;;;;;;5.90;1.92;;;;;;;;;;4991742;28;20451;-75
2023/04/02 08:29:22;;;;;;;3.40;2.13;;;;;;;;;;4992187;28;20460;-75
2023/04/02 08:31:47;;;;;;;5.38;1.90;;;;;;;;;;4993079;28;20033;-76
2023/04/02 08:34:13;;;;;;;4.38;2.00;;;;;;;;;;4992313;28;20034;-75
2023/04/02 08:36:42;;;;;;;4.97;2.00;;;;;;;;;;5010290;28;20887;-76
2023/04/02 08:39:10;;;;;;;6.00;2.20;;;;;;;;;;5012098;28;20029;-76
2023/04/02 08:42:05;;;;;;;4.75;2.20;;;;;;;;;;5011206;28;20108;-77
2023/04/02 08:44:42;;;;;;;4.18;2.10;;;;;;;;;;5008115;28;20037;-76
2023/04/02 08:47:09;;;;;;;4.60;2.28;;;;;;;;;;4991231;28;20057;-75
2023/04/02 08:49:38;;;;;;;5.60;2.38;;;;;;;;;;4992172;28;20425;-75
2023/04/02 08:52:04;;;;;;;5.13;2.38;;;;;;;;;;5012766;28;20068;-76
2023/04/02 08:54:38;;;;;;;7.45;2.10;;;;;;;;;;5011196;28;20061;-76
2023/04/02 08:57:08;;;;;;;5.82;2.22;;;;;;;;;;4991243;28;20610;-76
2023/04/02 08:59:44;;;;;;;3.95;1.83;;;;;;;;;;4988816;28;20030;-76
2023/04/02 09:02:28;;;;;;;4.93;2.10;;;;;;;;;;5001847;28;20924;-76
2023/04/02 09:04:56;;;;;;;4.95;2.15;;;;;;;;;;5010371;28;20026;-75
2023/04/02 09:07:22;;;;;;;5.75;2.30;;;;;;;;;;4991702;28;20038;-76
2023/04/02 09:09:49;;;;;;;3.90;2.03;;;;;;;;;;4992880;28;20083;-75
2023/04/02 09:12:22;;;;;;;4.20;2.22;;;;;;;;;;4995530;28;20111;-77
2023/04/02 09:15:02;;;;;;;5.03;2.40;;;;;;;;;;5011073;28;20155;-76
2023/04/02 09:17:29;;;;;;;6.95;2.78;;;;;;;;;;4992928;28;20041;-76
2023/04/02 09:20:22;;;;;;;5.20;2.30;;;;;;;;;;5006662;28;20482;-76
2023/04/02 09:22:50;;;;;;;6.25;2.47;;;;;;;;;;4988174;28;20037;-76
2023/04/02 09:25:22;;;;;;;6.63;2.55;;;;;;;;;;5004121;28;20065;-76
2023/04/02 09:27:49;;;;;;;8.05;2.38;;;;;;;;;;5010010;28;20516;-78
2023/04/02 09:30:30;;;;;;;5.70;2.30;;;;;;;;;;5018274;28;20516;-78
2023/04/02 09:32:58;;;;;;;3.83;1.88;;;;;;;;;;5006446;28;20033;-79
2023/04/02 09:35:26;;;;;;;3.67;1.83;;;;;;;;;;5017293;28;20048;-79
2023/04/02 09:38:23;;;;;;;2.80;1.67;;;;;;;;;;5016571;28;20043;-78
2023/04/02 09:41:17;;;;;;;2.95;1.60;;;;;;;;;;4992889;28;20156;-78
2023/04/02 09:43:42;;;;;;;4.40;1.88;;;;;;;;;;5025250;28;20646;-79
2023/04/02 09:46:23;;;;;;;3.63;1.90;;;;;;;;;;5002865;28;20105;-78
2023/04/02 09:48:53;;;;;;;3.63;1.65;;;;;;;;;;5015457;28;20097;-79
2023/04/02 09:51:25;;;;;;;4.68;2.05;;;;;;;;;;5013624;28;20034;-78
2023/04/02 09:54:11;;;;;;;2.50;1.52;;;;;;;;;;5016736;28;20033;-78
2023/04/02 09:56:37;;;;;;;4.28;2.00;;;;;;;;;;5003669;28;20143;-78
2023/04/02 09:59:15;;;;;;;3.17;1.75;;;;;;;;;;5006439;28;20100;-78
2023/04/02 10:01:49;;;;;;;3.67;1.90;;;;;;;;;;5019657;28;20022;-81
2023/04/02 10:04:35;;;;;;;4.68;2.03;;;;;;;;;;5007036;28;20038;-79
2023/04/02 10:07:02;;;;;;;4.32;2.08;;;;;;;;;;5015158;28;20022;-79
2023/04/02 10:09:31;;;;;;;3.47;2.22;;;;;;;;;;5001380;28;20041;-79
2023/04/02 10:11:58;;;;;;;5.30;2.33;;;;;;;;;;4998846;28;20441;-78
2023/04/02 10:14:38;;;;;;;4.00;2.20;;;;;;;;;;5018210;28;20033;-79
2023/04/02 10:17:14;;;;;;;3.70;1.92;;;;;;;;;;5014826;28;20022;-78
2023/04/02 10:19:44;;;;;;;5.07;1.95;;;;;;;;;;4992232;28;20088;-79
2023/04/02 10:22:15;;;;;;;3.20;1.88;;;;;;;;;;5008868;28;20037;-78
2023/04/02 10:24:40;;;;;;;3.47;1.95;;;;;;;;;;5007045;28;20498;-78
2023/04/02 10:27:43;;;;;;;3.53;1.95;;;;;;;;;;5015450;28;20053;-79
2023/04/02 10:30:18;;;;;;;4.32;1.90;;;;;;;;;;5005327;28;20374;-79
2023/04/02 10:33:04;;;;;;;3.05;1.70;;;;;;;;;;5006888;28;20041;-78
2023/04/02 10:36:00;;;;;;;4.47;2.17;;;;;;;;;;5017133;28;20064;-78
2023/04/02 10:38:37;;;;;;;3.72;1.90;;;;;;;;;;5011723;28;20052;-78
2023/04/02 10:41:32;;;;;;;5.53;2.38;;;;;;;;;;5007493;28;20030;-78
2023/04/02 10:44:22;;;;;;;4.75;2.20;;;;;;;;;;5003201;28;20026;-78
2023/04/02 10:47:16;;;;;;;3.75;1.90;;;;;;;;;;5009933;28;20046;-80
2023/04/02 10:49:52;;;;;;;6.28;2.50;;;;;;;;;;4996409;28;20943;-81
2023/04/02 10:52:25;;;;;;;4.22;1.83;;;;;;;;;;5021477;28;20567;-78
2023/04/02 10:54:53;;;;;;;4.10;1.90;;;;;;;;;;5023807;28;20238;-77
2023/04/02 10:57:33;;;;;;;4.30;2.03;;;;;;;;;;5026491;28;20026;-78
2023/04/02 11:00:17;;;;;;;3.28;1.58;;;;;;;;;;5000271;28;20347;-80
2023/04/02 11:02:45;;;;;;;3.80;2.25;;;;;;;;;;5023508;28;20034;-81
2023/04/02 11:05:17;;;;;;;4.30;2.17;;;;;;;;;;5021670;28;20529;-80
2023/04/02 11:07:55;;;;;;;3.33;1.97;;;;;;;;;;5018297;28;20153;-81
2023/04/02 11:10:20;;;;;;;2.78;1.70;;;;;;;;;;4989795;28;20113;-81
2023/04/02 11:13:10;;;;;;;3.65;1.90;;;;;;;;;;4995528;28;20108;-81
2023/04/02 11:15:36;;;;;;;4.22;1.50;;;;;;;;;;4972026;28;20410;-81
2023/04/02 11:18:02;;;;;;;2.88;1.55;;;;;;;;;;4989560;28;20029;-81
2023/04/02 11:20:46;;;;;;;3.47;1.80;;;;;;;;;;5005587;28;20494;-80
2023/04/02 11:23:13;;;;;;;3.63;1.90;;;;;;;;;;5011520;28;20030;-80
2023/04/02 11:25:41;;;;;;;3.95;1.75;;;;;;;;;;5004287;28;20033;-80
2023/04/02 11:28:26;;;;;;;3.58;1.60;;;;;;;;;;5003909;28;20079;-80
2023/04/02 11:30:52;;;;;;;3.05;1.90;;;;;;;;;;4988654;28;20046;-81
2023/04/02 11:33:30;;;;;;;4.28;1.73;;;;;;;;;;4989653;28;20168;-81
2023/04/02 11:35:56;;;;;;;4.00;1.60;;;;;;;;;;4985121;28;21612;-81
2023/04/02 11:38:21;;;;;;;3.05;1.48;;;;;;;;;;5005760;28;20040;-80
2023/04/02 11:40:47;;;;;;;2.85;1.75;;;;;;;;;;4999579;28;20829;-81
2023/04/02 11:43:34;;;;;;;4.50;1.65;;;;;;;;;;4993119;28;20033;-80
2023/04/02 11:46:15;;;;;;;2.90;1.65;;;;;;;;;;5004448;28;20025;-80
2023/04/02 11:48:41;;;;;;;2.97;1.75;;;;;;;;;;4993917;28;20030;-81
2023/04/02 11:51:19;;;;;;;4.53;1.70;;;;;;;;;;4991413;28;20053;-79
2023/04/02 11:53:45;;;;;;;4.15;2.00;;;;;;;;;;5012928;28;20468;-78
2023/04/02 11:56:27;;;;;;;3.33;1.90;;;;;;;;;;5006412;28;20485;-78
2023/04/02 11:59:03;;;;;;;3.42;1.70;;;;;;;;;;5002114;28;20402;-79
2023/04/02 12:01:53;;;;;;;2.92;1.77;;;;;;;;;;5001081;28;20033;-79
2023/04/02 12:04:51;;;;;;;4.68;2.00;;;;;;;;;;5006488;28;20542;-78
2023/04/02 12:07:50;;;;;;;7.70;2.10;;;;;;;;;;5008404;28;20572;-78
2023/04/02 12:10:47;;;;;;;3.90;2.25;;;;;;;;;;5014306;28;20040;-78
2023/04/02 12:13:20;;;;;;;4.47;2.00;;;;;;;;;;5008914;28;20465;-81
2023/04/02 12:15:48;;;;;;;3.30;1.90;;;;;;;;;;4989072;28;20037;-79
2023/04/02 12:18:18;;;;;;;7.00;2.25;;;;;;;;;;5002828;28;20029;-78
2023/04/02 12:20:52;;;;;;;4.20;2.55;;;;;;;;;;5007883;28;20096;-78
2023/04/02 12:23:25;;;;;;;5.85;2.00;;;;;;;;;;4992422;28;20026;-79
2023/04/02 12:26:05;;;;;;;6.65;2.40;;;;;;;;;;5001835;28;20038;-79
2023/04/02 12:28:32;;;;;;;3.20;2.08;;;;;;;;;;4991486;28;20436;-78
2023/04/02 12:31:10;;;;;;;6.38;2.13;;;;;;;;;;4990763;28;20033;-79
2023/04/02 12:33:38;;;;;;;3.78;2.20;;;;;;;;;;5003776;28;20049;-78
2023/04/02 12:36:08;;;;;;;5.25;2.10;;;;;;;;;;5007339;28;20434;-79
2023/04/02 12:38:45;;;;;;;4.07;2.17;;;;;;;;;;5008693;28;20033;-81
2023/04/02 12:41:28;;;;;;;4.88;2.00;;;;;;;;;;5002634;28;20040;-81
2023/04/02 12:44:17;;;;;;;4.32;2.22;;;;;;;;;;4986483;28;20168;-78
2023/04/02 12:46:44;;;;;;;3.75;2.20;;;;;;;;;;4997025;28;20034;-78
2023/04/02 12:49:27;;;;;;;3.03;1.75;;;;;;;;;;5003187;28;20025;-78
2023/04/02 12:51:53;;;;;;;5.90;2.03;;;;;;;;;;5000782;28;20107;-78
2023/04/02 12:54:19;;;;;;;7.18;1.95;;;;;;;;;;4983977;28;20547;-78
2023/04/02 12:56:46;;;;;;;4.15;2.00;;;;;;;;;;4985557;28;20058;-78
2023/04/02 12:59:34;;;;;;;4.20;1.83;;;;;;;;;;4998837;28;20501;-79
2023/04/02 13:02:14;;;;;;;3.85;2.00;;;;;;;;;;5002459;28;20029;-78
2023/04/02 13:05:00;;;;;;;4.22;1.77;;;;;;;;;;4985354;28;20714;-78
2023/04/02 13:07:31;;;;;;;4.80;2.10;;;;;;;;;;5001370;28;20847;-79
2023/04/02 13:10:03;;;;;;;4.00;1.83;;;;;;;;;;4985258;28;20029;-79
2023/04/02 13:12:38;;;;;;;4.55;2.03;;;;;;;;;;4989218;28;20529;-78
2023/04/02 13:15:16;;;;;;;4.00;2.25;;;;;;;;;;5006401;28;20037;-78
2023/04/02 13:17:46;;;;;;;5.07;1.80;;;;;;;;;;4995153;28;20551;-79
2023/04/02 13:20:34;;;;;;;4.55;2.03;;;;;;;;;;5007333;28;20030;-78
2023/04/02 13:23:20;;;;;;;4.03;2.10;;;;;;;;;;4990821;28;20116;-78
2023/04/02 13:25:45;;;;;;;3.65;2.13;;;;;;;;;;4999946;28;20030;-78
2023/04/02 13:28:10;;;;;;;3.67;1.95;;;;;;;;;;5007340;28;20037;-79
2023/04/02 13:30:36;;;;;;;4.60;1.83;;;;;;;;;;5012717;28;20128;-75
2023/04/02 13:33:01;;;;;;;4.18;2.00;;;;;;;;;;4987278;28;20133;-75
2023/04/02 13:35:26;;;;;;;5.07;2.03;;;;;;;;;;4999987;28;20052;-75
2023/04/02 13:37:52;;;;;;;4.10;2.17;;;;;;;;;;4981354;28;20038;-76
2023/04/02 13:40:18;;;;;;;5.65;2.15;;;;;;;;;;4986960;28;20030;-75
2023/04/02 13:42:45;;;;;;;4.03;1.75;;;;;;;;;;4989486;28;20772;-75
2023/04/02 13:45:21;;;;;;;2.25;1.50;;;;;;;;;;4984178;28;20029;-75
2023/04/02 13:47:46;;;;;;;4.25;2.00;;;;;;;;;;4988231;28;20029;-75
2023/04/02 13:50:24;;;;;;;3.95;1.95;;;;;;;;;;5005775;28;20049;-75
2023/04/02 13:52:50;;;;;;;4.55;1.90;;;;;;;;;;4989709;28;20029;-74
2023/04/02 13:55:22;;;;;;;5.15;2.03;;;;;;;;;;4987469;28;20025;-76
2023/04/02 13:57:49;;;;;;;3.20;1.42;;;;;;;;;;4990484;28;20783;-75
2023/04/02 14:00:15;;;;;;;3.25;1.50;;;;;;;;;;4981727;28;20026;-75
2023/04/02 14:02:47;;;;;;;3.67;1.80;;;;;;;;;;4987834;28;20069;-75
2023/04/02 14:05:24;;;;;;;3.63;1.90;;;;;;;;;;5003549;28;20029;-76
2023/04/02 14:08:12;;;;;;;3.92;1.80;;;;;;;;;;4986149;28;20410;-76
2023/04/02 14:10:53;;;;;;;3.75;1.55;;;;;;;;;;5005577;28;20136;-76
2023/04/02 14:13:36;;;;;;;3.25;1.92;;;;;;;;;;4985196;28;20060;-75
2023/04/02 14:16:10;;;;;;;5.78;2.10;;;;;;;;;;5004671;28;20473;-75
2023/04/02 14:18:51;;;;;;;2.58;1.50;;;;;;;;;;4988858;28;20065;-76
2023/04/02 14:21:25;;;;;;;3.08;1.42;;;;;;;;;;4986496;28;20339;-75
2023/04/02 14:24:12;;;;;;;8.00;1.65;;;;;;;;;;4996502;28;20030;-76
2023/04/02 14:27:12;;;;;;;3.13;1.45;;;;;;;;;;5002244;28;20034;-75
2023/04/02 14:30:02;;;;;;;3.92;1.60;;;;;;;;;;5009731;28;20032;-74
2023/04/02 14:32:44;;;;;;;3.40;1.48;;;;;;;;;;4986836;28;20036;-75
2023/04/02 14:35:15;;;;;;;3.83;1.42;;;;;;;;;;4984183;28;20033;-75
2023/04/02 14:38:17;;;;;;;4.35;1.70;;;;;;;;;;5005189;28;20037;-78
2023/04/02 14:40:51;;;;;;;5.55;1.70;;;;;;;;;;4982286;28;20046;-78
2023/04/02 14:43:23;;;;;;;4.97;1.70;;;;;;;;;;4983080;28;20034;-78
2023/04/02 14:46:00;;;;;;;4.60;1.80;;;;;;;;;;5003585;28;20398;-76
2023/04/02 14:48:39;;;;;;;2.67;1.48;;;;;;;;;;5009940;28;20029;-74
2023/04/02 14:51:21;;;;;;;2.88;1.50;;;;;;;;;;4990065;28;20061;-74
2023/04/02 14:54:33;;;;;;;3.83;1.30;;;;;;;;;;5007397;28;20033;-75
2023/04/02 14:57:35;;;;;;;3.15;1.50;;;;;;;;;;4984753;28;20654;-76
2023/04/02 15:00:23;;;;;;;5.35;1.75;;;;;;;;;;4991940;28;20101;-75
2023/04/02 15:03:06;;;;;;;3.33;1.20;;;;;;;;;;5004640;28;20037;-75
2023/04/02 15:05:42;;;;;;;3.95;1.50;;;;;;;;;;5000978;28;20034;-75
2023/04/02 15:08:36;;;;;;;3.97;1.70;;;;;;;;;;5008384;28;20034;-74
2023/04/02 15:11:10;;;;;;;2.58;1.45;;;;;;;;;;5000761;28;20537;-75
2023/04/02 15:13:56;;;;;;;3.85;1.55;;;;;;;;;;5008031;28;20033;-75
2023/04/02 15:16:25;;;;;;;3.25;1.60;;;;;;;;;;4981547;28;20117;-75
2023/04/02 15:18:54;;;;;;;4.88;1.98;;;;;;;;;;5010892;28;20160;-76
2023/04/02 15:21:19;;;;;;;5.65;1.42;;;;;;;;;;4989923;28;20730;-75
2023/04/02 15:23:51;;;;;;;4.88;1.63;;;;;;;;;;5009353;28;20238;-75
2023/04/02 15:26:23;;;;;;;4.80;1.48;;;;;;;;;;5003684;28;20041;-76